sensor_id;sensor_type;location;lat;lon;timestamp;pressure;altitude;pressure_sealevel;temperature;humidity
62694;BME280;48759;52.544;13.418;2023-11-19T00:01:42;78312.47;;;-145.86;100.00
62694;BME280;48759;52.544;13.418;2023-11-19T00:04:09;78312.47;;;-145.86;100.00
62694;BME280;48759;52.544;13.418;2023-11-19T00:06:37;78312.47;;;-145.86;100.00
62694;BME280;48759;52.544;13.418;2023-11-19T00:09:03;78312.47;;;-145.86;100.00
62694;BME280;48759;52.544;13.418;2023-11-19T00:11:30;78312.47;;;-145.86;100.00
62694;BME280;48759;52.544;13.418;2023-11-19T00:13:56;78312.47;;;-145.86;100.00
62694;BME280;48759;52.544;13.418;2023-11-19T00:16:23;78312.47;;;-145.86;100.00
62694;BME280;48759;52.544;13.418;2023-11-19T00:18:50;78312.47;;;-145.86;100.00
62694;BME280;48759;52.544;13.418;2023-11-19T00:21:17;78312.47;;;-145.86;100.00
62694;BME280;48759;52.544;13.418;2023-11-19T00:23:45;78312.47;;;-145.86;100.00
62694;BME280;48759;52.544;13.418;2023-11-19T00:26:12;78312.47;;;-145.86;100.00
62694;BME280;48759;52.544;13.418;2023-11-19T00:28:40;78312.47;;;-145.86;100.00
62694;BME280;48759;52.544;13.418;2023-11-19T00:31:08;78312.47;;;-145.86;100.00
62694;BME280;48759;52.544;13.418;2023-11-19T00:33:35;78312.47;;;-145.86;100.00
62694;BME280;48759;52.544;13.418;2023-11-19T00:36:03;78312.47;;;-145.86;100.00
62694;BME280;48759;52.544;13.418;2023-11-19T00:38:29;78312.47;;;-145.86;100.00
62694;BME280;48759;52.544;13.418;2023-11-19T00:40:58;78312.47;;;-145.86;100.00
62694;BME280;48759;52.544;13.418;2023-11-19T00:43:25;78312.47;;;-145.86;100.00
62694;BME280;48759;52.544;13.418;2023-11-19T00:45:52;78312.47;;;-145.86;100.00
62694;BME280;48759;52.544;13.418;2023-11-19T00:48:19;78312.47;;;-145.86;100.00
62694;BME280;48759;52.544;13.418;2023-11-19T00:50:45;78312.47;;;-145.86;100.00
62694;BME280;48759;52.544;13.418;2023-11-19T00:53:12;78312.47;;;-145.86;100.00
62694;BME280;48759;52.544;13.418;2023-11-19T00:55:39;78312.47;;;-145.86;100.00
62694;BME280;48759;52.544;13.418;2023-11-19T00:58:06;78312.47;;;-145.86;100.00
62694;BME280;48759;52.544;13.418;2023-11-19T01:00:33;78312.47;;;-145.86;100.00
62694;BME280;48759;52.544;13.418;2023-11-19T01:03:00;78312.47;;;-145.86;100.00
62694;BME280;48759;52.544;13.418;2023-11-19T01:05:27;78312.47;;;-145.86;100.00
62694;BME280;48759;52.544;13.418;2023-11-19T01:07:54;78312.47;;;-145.86;100.00
62694;BME280;48759;52.544;13.418;2023-11-19T01:10:21;78312.47;;;-145.86;100.00
62694;BME280;48759;52.544;13.418;2023-11-19T01:12:47;78312.47;;;-145.86;100.00
62694;BME280;48759;52.544;13.418;2023-11-19T01:15:15;78312.47;;;-145.86;100.00
62694;BME280;48759;52.544;13.418;2023-11-19T01:17:44;78312.47;;;-145.86;100.00
62694;BME280;48759;52.544;13.418;2023-11-19T01:20:11;78312.47;;;-145.86;100.00
62694;BME280;48759;52.544;13.418;2023-11-19T01:22:38;78312.47;;;-145.86;100.00
62694;BME280;48759;52.544;13.418;2023-11-19T01:25:06;78312.47;;;-145.86;100.00
62694;BME280;48759;52.544;13.418;2023-11-19T01:27:33;78312.47;;;-145.86;100.00
62694;BME280;48759;52.544;13.418;2023-11-19T01:30:01;78312.47;;;-145.86;100.00
62694;BME280;48759;52.544;13.418;2023-11-19T01:32:30;78312.47;;;-145.86;100.00
62694;BME280;48759;52.544;13.418;2023-11-19T01:34:57;78312.47;;;-145.86;100.00
62694;BME280;48759;52.544;13.418;2023-11-19T01:37:24;78312.47;;;-145.86;100.00
62694;BME280;48759;52.544;13.418;2023-11-19T01:39:50;78312.47;;;-145.86;100.00
62694;BME280;48759;52.544;13.418;2023-11-19T01:42:17;78312.47;;;-145.86;100.00
62694;BME280;48759;52.544;13.418;2023-11-19T01:44:55;78312.47;;;-145.86;100.00
62694;BME280;48759;52.544;13.418;2023-11-19T01:47:24;78312.47;;;-145.86;100.00
62694;BME280;48759;52.544;13.418;2023-11-19T01:49:52;78312.47;;;-145.86;100.00
62694;BME280;48759;52.544;13.418;2023-11-19T01:52:20;78312.47;;;-145.86;100.00
62694;BME280;48759;52.544;13.418;2023-11-19T01:54:47;78312.47;;;-145.86;100.00
62694;BME280;48759;52.544;13.418;2023-11-19T01:57:14;78312.47;;;-145.86;100.00
62694;BME280;48759;52.544;13.418;2023-11-19T01:59:41;78312.47;;;-145.86;100.00
62694;BME280;48759;52.544;13.418;2023-11-19T02:02:08;78312.47;;;-145.86;100.00
62694;BME280;48759;52.544;13.418;2023-11-19T02:04:35;78312.47;;;-145.86;100.00
62694;BME280;48759;52.544;13.418;2023-11-19T02:07:05;78312.47;;;-145.86;100.00
62694;BME280;48759;52.544;13.418;2023-11-19T02:09:31;78312.47;;;-145.86;100.00
62694;BME280;48759;52.544;13.418;2023-11-19T02:11:58;78312.47;;;-145.86;100.00
62694;BME280;48759;52.544;13.418;2023-11-19T02:14:26;78312.47;;;-145.86;100.00
62694;BME280;48759;52.544;13.418;2023-11-19T02:16:53;78312.47;;;-145.86;100.00
62694;BME280;48759;52.544;13.418;2023-11-19T02:19:20;78312.47;;;-145.86;100.00
62694;BME280;48759;52.544;13.418;2023-11-19T02:21:47;78312.47;;;-145.86;100.00
62694;BME280;48759;52.544;13.418;2023-11-19T02:24:16;78312.47;;;-145.86;100.00
62694;BME280;48759;52.544;13.418;2023-11-19T02:26:51;78312.47;;;-145.86;100.00
62694;BME280;48759;52.544;13.418;2023-11-19T02:29:23;78312.47;;;-145.86;100.00
62694;BME280;48759;52.544;13.418;2023-11-19T02:31:49;78312.47;;;-145.86;100.00
62694;BME280;48759;52.544;13.418;2023-11-19T02:34:16;78312.47;;;-145.86;100.00
62694;BME280;48759;52.544;13.418;2023-11-19T02:36:43;78312.47;;;-145.86;100.00
62694;BME280;48759;52.544;13.418;2023-11-19T02:39:09;118478.38;;;-145.86;100.00
62694;BME280;48759;52.544;13.418;2023-11-19T02:41:37;118478.38;;;-145.86;100.00
62694;BME280;48759;52.544;13.418;2023-11-19T02:44:05;78312.47;;;-145.86;100.00
62694;BME280;48759;52.544;13.418;2023-11-19T02:46:33;78312.47;;;-145.86;100.00
62694;BME280;48759;52.544;13.418;2023-11-19T02:49:00;78312.47;;;-145.86;100.00
62694;BME280;48759;52.544;13.418;2023-11-19T02:51:27;78312.47;;;-145.86;100.00
62694;BME280;48759;52.544;13.418;2023-11-19T02:53:55;78312.47;;;-145.86;100.00
62694;BME280;48759;52.544;13.418;2023-11-19T02:56:22;78312.47;;;-145.86;100.00
62694;BME280;48759;52.544;13.418;2023-11-19T02:58:52;78312.47;;;-145.86;100.00
62694;BME280;48759;52.544;13.418;2023-11-19T03:01:22;78312.47;;;-145.86;100.00
62694;BME280;48759;52.544;13.418;2023-11-19T03:03:57;118477.84;;;-145.86;100.00
62694;BME280;48759;52.544;13.418;2023-11-19T03:06:23;118477.84;;;-145.86;100.00
62694;BME280;48759;52.544;13.418;2023-11-19T03:08:50;78312.47;;;-145.86;100.00
62694;BME280;48759;52.544;13.418;2023-11-19T03:11:17;78312.47;;;-145.86;100.00
62694;BME280;48759;52.544;13.418;2023-11-19T03:13:44;78312.47;;;-145.86;100.00
62694;BME280;48759;52.544;13.418;2023-11-19T03:16:12;78312.47;;;-145.86;100.00
62694;BME280;48759;52.544;13.418;2023-11-19T03:18:39;62436.91;;;-145.86;0.00
62694;BME280;48759;52.544;13.418;2023-11-19T03:21:07;118477.84;;;-145.86;100.00
62694;BME280;48759;52.544;13.418;2023-11-19T03:23:34;78312.47;;;-145.86;100.00
62694;BME280;48759;52.544;13.418;2023-11-19T03:26:01;118477.84;;;-145.86;100.00
62694;BME280;48759;52.544;13.418;2023-11-19T03:28:30;78312.47;;;-145.86;100.00
62694;BME280;48759;52.544;13.418;2023-11-19T03:30:57;78312.47;;;-145.86;100.00
62694;BME280;48759;52.544;13.418;2023-11-19T03:33:24;78312.47;;;-145.86;100.00
62694;BME280;48759;52.544;13.418;2023-11-19T03:35:51;78312.47;;;-145.86;100.00
62694;BME280;48759;52.544;13.418;2023-11-19T03:38:19;78312.47;;;-145.86;100.00
62694;BME280;48759;52.544;13.418;2023-11-19T03:40:46;78312.47;;;-145.86;100.00
62694;BME280;48759;52.544;13.418;2023-11-19T03:43:12;78312.47;;;-145.86;100.00
62694;BME280;48759;52.544;13.418;2023-11-19T03:45:39;118478.38;;;-145.86;100.00
62694;BME280;48759;52.544;13.418;2023-11-19T03:48:06;78312.47;;;-145.86;100.00
62694;BME280;48759;52.544;13.418;2023-11-19T03:50:33;78312.47;;;-145.86;100.00
62694;BME280;48759;52.544;13.418;2023-11-19T03:53:00;78312.47;;;-145.86;100.00
62694;BME280;48759;52.544;13.418;2023-11-19T03:55:29;78312.47;;;-145.86;100.00
62694;BME280;48759;52.544;13.418;2023-11-19T03:57:56;78312.47;;;-145.86;100.00
62694;BME280;48759;52.544;13.418;2023-11-19T04:00:23;78312.47;;;-145.86;100.00
62694;BME280;48759;52.544;13.418;2023-11-19T04:05:16;78312.47;;;-145.86;100.00
62694;BME280;48759;52.544;13.418;2023-11-19T04:07:44;78312.47;;;-145.86;100.00
62694;BME280;48759;52.544;13.418;2023-11-19T04:10:10;78312.47;;;-145.86;100.00
62694;BME280;48759;52.544;13.418;2023-11-19T04:12:38;78312.47;;;-145.86;100.00
62694;BME280;48759;52.544;13.418;2023-11-19T04:15:06;78312.47;;;-145.86;100.00
62694;BME280;48759;52.544;13.418;2023-11-19T04:17:34;78312.47;;;-145.86;100.00
62694;BME280;48759;52.544;13.418;2023-11-19T04:20:00;78312.47;;;-145.86;100.00
62694;BME280;48759;52.544;13.418;2023-11-19T04:22:29;78312.47;;;-145.86;100.00
62694;BME280;48759;52.544;13.418;2023-11-19T04:24:56;78312.47;;;-145.86;100.00
62694;BME280;48759;52.544;13.418;2023-11-19T04:27:23;78312.47;;;-145.86;100.00
62694;BME280;48759;52.544;13.418;2023-11-19T04:29:51;118478.38;;;-145.86;100.00
62694;BME280;48759;52.544;13.418;2023-11-19T04:32:17;78312.47;;;-145.86;100.00
62694;BME280;48759;52.544;13.418;2023-11-19T04:34:44;78312.47;;;-145.86;100.00
62694;BME280;48759;52.544;13.418;2023-11-19T04:37:11;78312.47;;;-145.86;100.00
62694;BME280;48759;52.544;13.418;2023-11-19T04:39:38;78312.47;;;-145.86;100.00
62694;BME280;48759;52.544;13.418;2023-11-19T04:42:05;78312.47;;;-145.86;100.00
62694;BME280;48759;52.544;13.418;2023-11-19T04:44:32;78312.47;;;-145.86;100.00
62694;BME280;48759;52.544;13.418;2023-11-19T04:47:00;78312.47;;;-145.86;100.00
62694;BME280;48759;52.544;13.418;2023-11-19T04:49:27;78312.47;;;-145.86;100.00
62694;BME280;48759;52.544;13.418;2023-11-19T04:51:53;78312.47;;;-145.86;100.00
62694;BME280;48759;52.544;13.418;2023-11-19T04:54:20;78312.47;;;-145.86;100.00
62694;BME280;48759;52.544;13.418;2023-11-19T04:56:47;78312.47;;;-145.86;100.00
62694;BME280;48759;52.544;13.418;2023-11-19T04:59:14;78312.47;;;-145.86;100.00
62694;BME280;48759;52.544;13.418;2023-11-19T05:01:41;78312.47;;;-145.86;100.00
62694;BME280;48759;52.544;13.418;2023-11-19T05:04:09;78312.47;;;-145.86;100.00
62694;BME280;48759;52.544;13.418;2023-11-19T05:06:36;78312.47;;;-145.86;100.00
62694;BME280;48759;52.544;13.418;2023-11-19T05:09:03;78312.47;;;-145.86;100.00
62694;BME280;48759;52.544;13.418;2023-11-19T05:11:30;78312.47;;;-145.86;100.00
62694;BME280;48759;52.544;13.418;2023-11-19T05:13:58;78312.47;;;-145.86;100.00
62694;BME280;48759;52.544;13.418;2023-11-19T05:16:24;78312.47;;;-145.86;100.00
62694;BME280;48759;52.544;13.418;2023-11-19T05:18:51;78312.47;;;-145.86;100.00
62694;BME280;48759;52.544;13.418;2023-11-19T05:21:19;78312.47;;;-145.86;100.00
62694;BME280;48759;52.544;13.418;2023-11-19T05:23:47;78312.47;;;-145.86;100.00
62694;BME280;48759;52.544;13.418;2023-11-19T05:26:17;78312.47;;;-145.86;100.00
62694;BME280;48759;52.544;13.418;2023-11-19T05:28:45;78312.47;;;-145.86;100.00
62694;BME280;48759;52.544;13.418;2023-11-19T05:31:11;78312.47;;;-145.86;100.00
62694;BME280;48759;52.544;13.418;2023-11-19T05:33:38;78312.47;;;-145.86;100.00
62694;BME280;48759;52.544;13.418;2023-11-19T05:36:06;78312.47;;;-145.86;100.00
62694;BME280;48759;52.544;13.418;2023-11-19T05:38:34;78312.47;;;-145.86;100.00
62694;BME280;48759;52.544;13.418;2023-11-19T05:41:01;78312.47;;;-145.86;100.00
62694;BME280;48759;52.544;13.418;2023-11-19T05:43:28;78312.47;;;-145.86;100.00
62694;BME280;48759;52.544;13.418;2023-11-19T05:45:55;78312.47;;;-145.86;100.00
62694;BME280;48759;52.544;13.418;2023-11-19T05:48:22;78312.47;;;-145.86;100.00
62694;BME280;48759;52.544;13.418;2023-11-19T05:50:48;78312.47;;;-145.86;100.00
62694;BME280;48759;52.544;13.418;2023-11-19T05:53:15;78312.47;;;-145.86;100.00
62694;BME280;48759;52.544;13.418;2023-11-19T05:55:43;78312.47;;;-145.86;100.00
62694;BME280;48759;52.544;13.418;2023-11-19T05:58:14;78312.47;;;-145.86;100.00
62694;BME280;48759;52.544;13.418;2023-11-19T06:00:41;101881.84;;;6.13;100.00
62694;BME280;48759;52.544;13.418;2023-11-19T06:03:08;78312.47;;;-145.86;100.00
62694;BME280;48759;52.544;13.418;2023-11-19T06:05:34;133012.28;;;6.13;100.00
62694;BME280;48759;52.544;13.418;2023-11-19T06:08:01;133012.28;;;6.13;100.00
62694;BME280;48759;52.544;13.418;2023-11-19T06:10:28;78312.47;;;-145.86;100.00
62694;BME280;48759;52.544;13.418;2023-11-19T06:12:58;78312.47;;;-145.86;100.00
62694;BME280;48759;52.544;13.418;2023-11-19T06:15:25;133012.28;;;6.13;100.00
62694;BME280;48759;52.544;13.418;2023-11-19T06:17:52;133012.28;;;6.13;100.00
62694;BME280;48759;52.544;13.418;2023-11-19T06:20:20;133012.28;;;6.13;100.00
62694;BME280;48759;52.544;13.418;2023-11-19T06:22:46;101881.84;;;6.13;100.00
62694;BME280;48759;52.544;13.418;2023-11-19T06:25:13;78312.47;;;-145.86;100.00
62694;BME280;48759;52.544;13.418;2023-11-19T06:27:41;78312.47;;;-145.86;100.00
62694;BME280;48759;52.544;13.418;2023-11-19T06:30:10;133012.28;;;6.13;100.00
62694;BME280;48759;52.544;13.418;2023-11-19T06:32:38;92788.44;;;-99.24;100.00
62694;BME280;48759;52.544;13.418;2023-11-19T06:35:05;133012.28;;;6.13;100.00
62694;BME280;48759;52.544;13.418;2023-11-19T06:37:32;101881.84;;;6.13;100.00
62694;BME280;48759;52.544;13.418;2023-11-19T06:39:59;101881.84;;;6.13;100.00
62694;BME280;48759;52.544;13.418;2023-11-19T06:42:26;101881.84;;;-99.24;100.00
62694;BME280;48759;52.544;13.418;2023-11-19T06:44:52;101881.84;;;6.13;100.00
62694;BME280;48759;52.544;13.418;2023-11-19T06:47:21;133012.28;;;6.13;100.00
62694;BME280;48759;52.544;13.418;2023-11-19T06:49:47;133012.28;;;6.13;100.00
62694;BME280;48759;52.544;13.418;2023-11-19T06:52:14;78312.47;;;-145.86;100.00
62694;BME280;48759;52.544;13.418;2023-11-19T06:54:42;133012.28;;;6.13;100.00
62694;BME280;48759;52.544;13.418;2023-11-19T06:57:11;101881.84;;;6.13;100.00
62694;BME280;48759;52.544;13.418;2023-11-19T06:59:37;101881.84;;;6.13;100.00
62694;BME280;48759;52.544;13.418;2023-11-19T07:02:04;101881.84;;;6.13;100.00
62694;BME280;48759;52.544;13.418;2023-11-19T07:04:32;101881.84;;;6.13;100.00
62694;BME280;48759;52.544;13.418;2023-11-19T07:06:59;101881.84;;;6.13;100.00
62694;BME280;48759;52.544;13.418;2023-11-19T07:09:26;101881.84;;;6.13;100.00
62694;BME280;48759;52.544;13.418;2023-11-19T07:11:53;101881.84;;;6.13;100.00
62694;BME280;48759;52.544;13.418;2023-11-19T07:14:19;101881.84;;;6.13;100.00
62694;BME280;48759;52.544;13.418;2023-11-19T07:16:46;101881.84;;;6.13;100.00
62694;BME280;48759;52.544;13.418;2023-11-19T07:19:13;101881.84;;;6.13;100.00
62694;BME280;48759;52.544;13.418;2023-11-19T07:21:42;101881.84;;;6.13;100.00
62694;BME280;48759;52.544;13.418;2023-11-19T07:24:10;101881.84;;;6.13;100.00
62694;BME280;48759;52.544;13.418;2023-11-19T07:26:42;101881.84;;;6.13;100.00
62694;BME280;48759;52.544;13.418;2023-11-19T07:29:09;101881.84;;;6.13;100.00
62694;BME280;48759;52.544;13.418;2023-11-19T07:31:36;101881.84;;;6.13;100.00
62694;BME280;48759;52.544;13.418;2023-11-19T07:34:03;101881.84;;;6.13;100.00
62694;BME280;48759;52.544;13.418;2023-11-19T07:36:30;101881.84;;;6.13;100.00
62694;BME280;48759;52.544;13.418;2023-11-19T07:38:58;101881.84;;;6.13;100.00
62694;BME280;48759;52.544;13.418;2023-11-19T07:41:25;101881.84;;;6.13;100.00
62694;BME280;48759;52.544;13.418;2023-11-19T07:43:52;101881.84;;;6.13;100.00
62694;BME280;48759;52.544;13.418;2023-11-19T07:46:19;100016.59;;;7.02;100.00
62694;BME280;48759;52.544;13.418;2023-11-19T07:48:46;100020.00;;;7.04;100.00
62694;BME280;48759;52.544;13.418;2023-11-19T07:51:13;100024.44;;;6.97;100.00
62694;BME280;48759;52.544;13.418;2023-11-19T07:53:40;100026.00;;;6.92;100.00
62694;BME280;48759;52.544;13.418;2023-11-19T07:56:09;100011.81;;;7.13;100.00
62694;BME280;48759;52.544;13.418;2023-11-19T07:58:35;100011.81;;;7.13;100.00
62694;BME280;48759;52.544;13.418;2023-11-19T08:01:03;100020.91;;;7.28;100.00
62694;BME280;48759;52.544;13.418;2023-11-19T08:03:30;100025.03;;;7.24;100.00
62694;BME280;48759;52.544;13.418;2023-11-19T08:05:59;100025.03;;;7.24;100.00
62694;BME280;48759;52.544;13.418;2023-11-19T08:08:26;100026.72;;;7.25;100.00
62694;BME280;48759;52.544;13.418;2023-11-19T08:10:57;100017.13;;;7.45;100.00
62694;BME280;48759;52.544;13.418;2023-11-19T08:13:26;100021.00;;;7.51;100.00
62694;BME280;48759;52.544;13.418;2023-11-19T08:15:52;100024.44;;;7.75;100.00
62694;BME280;48759;52.544;13.418;2023-11-19T08:18:19;100016.31;;;7.67;100.00
62694;BME280;48759;52.544;13.418;2023-11-19T08:20:45;100016.31;;;7.67;100.00
62694;BME280;48759;52.544;13.418;2023-11-19T08:23:17;100008.94;;;7.53;100.00
62694;BME280;48759;52.544;13.418;2023-11-19T08:25:44;100014.53;;;7.82;100.00
62694;BME280;48759;52.544;13.418;2023-11-19T08:28:11;99999.06;;;7.83;100.00
62694;BME280;48759;52.544;13.418;2023-11-19T08:30:39;100008.34;;;7.89;100.00
62694;BME280;48759;52.544;13.418;2023-11-19T08:33:06;100018.03;;;7.91;100.00
62694;BME280;48759;52.544;13.418;2023-11-19T08:35:32;99987.19;;;7.99;100.00
62694;BME280;48759;52.544;13.418;2023-11-19T08:37:59;99995.31;;;8.07;100.00
62694;BME280;48759;52.544;13.418;2023-11-19T08:40:27;99990.06;;;8.20;100.00
62694;BME280;48759;52.544;13.418;2023-11-19T08:42:55;99983.19;;;8.32;100.00
62694;BME280;48759;52.544;13.418;2023-11-19T08:45:21;99976.13;;;8.38;100.00
62694;BME280;48759;52.544;13.418;2023-11-19T08:47:50;99962.75;;;8.28;100.00
62694;BME280;48759;52.544;13.418;2023-11-19T08:50:16;99992.22;;;8.47;100.00
62694;BME280;48759;52.544;13.418;2023-11-19T08:52:43;99992.72;;;8.28;100.00
62694;BME280;48759;52.544;13.418;2023-11-19T08:55:10;99977.53;;;8.19;100.00
62694;BME280;48759;52.544;13.418;2023-11-19T08:57:38;99965.94;;;8.54;100.00
62694;BME280;48759;52.544;13.418;2023-11-19T09:00:06;99973.94;;;8.71;100.00
62694;BME280;48759;52.544;13.418;2023-11-19T09:02:33;99969.06;;;8.95;100.00
62694;BME280;48759;52.544;13.418;2023-11-19T09:05:01;99973.75;;;8.72;100.00
62694;BME280;48759;52.544;13.418;2023-11-19T09:07:28;99978.44;;;8.78;100.00
62694;BME280;48759;52.544;13.418;2023-11-19T09:09:55;99969.75;;;8.45;100.00
62694;BME280;48759;52.544;13.418;2023-11-19T09:12:21;99969.91;;;8.67;100.00
62694;BME280;48759;52.544;13.418;2023-11-19T09:14:48;99984.66;;;8.72;100.00
62694;BME280;48759;52.544;13.418;2023-11-19T09:17:15;99991.03;;;8.65;100.00
62694;BME280;48759;52.544;13.418;2023-11-19T09:19:43;99990.72;;;8.59;100.00
62694;BME280;48759;52.544;13.418;2023-11-19T09:22:11;100003.56;;;8.74;100.00
62694;BME280;48759;52.544;13.418;2023-11-19T09:24:38;99965.81;;;9.07;100.00
62694;BME280;48759;52.544;13.418;2023-11-19T09:27:05;100003.06;;;8.85;100.00
62694;BME280;48759;52.544;13.418;2023-11-19T09:29:32;99983.81;;;9.01;100.00
62694;BME280;48759;52.544;13.418;2023-11-19T09:31:59;99985.75;;;9.07;100.00
62694;BME280;48759;52.544;13.418;2023-11-19T09:34:26;99992.38;;;9.13;100.00
62694;BME280;48759;52.544;13.418;2023-11-19T09:36:53;99990.78;;;9.18;100.00
62694;BME280;48759;52.544;13.418;2023-11-19T09:39:21;99982.50;;;9.26;100.00
62694;BME280;48759;52.544;13.418;2023-11-19T09:41:48;99982.22;;;9.36;100.00
62694;BME280;48759;52.544;13.418;2023-11-19T09:44:14;99973.22;;;9.57;100.00
62694;BME280;48759;52.544;13.418;2023-11-19T09:46:43;99964.28;;;9.84;100.00
62694;BME280;48759;52.544;13.418;2023-11-19T09:49:11;99969.31;;;10.08;100.00
62694;BME280;48759;52.544;13.418;2023-11-19T09:51:39;99974.66;;;10.16;100.00
62694;BME280;48759;52.544;13.418;2023-11-19T09:54:06;99970.31;;;10.50;100.00
62694;BME280;48759;52.544;13.418;2023-11-19T09:56:36;99966.63;;;10.64;100.00
62694;BME280;48759;52.544;13.418;2023-11-19T09:59:05;99959.91;;;10.60;100.00
62694;BME280;48759;52.544;13.418;2023-11-19T10:01:32;99974.75;;;10.51;100.00
62694;BME280;48759;52.544;13.418;2023-11-19T10:04:01;99961.03;;;10.44;100.00
62694;BME280;48759;52.544;13.418;2023-11-19T10:06:28;99964.84;;;10.50;100.00
62694;BME280;48759;52.544;13.418;2023-11-19T10:08:55;99964.34;;;10.40;100.00
62694;BME280;48759;52.544;13.418;2023-11-19T10:11:22;99962.38;;;10.55;100.00
62694;BME280;48759;52.544;13.418;2023-11-19T10:13:51;99956.34;;;10.66;100.00
62694;BME280;48759;52.544;13.418;2023-11-19T10:16:18;99960.47;;;10.77;100.00
62694;BME280;48759;52.544;13.418;2023-11-19T10:18:46;99960.69;;;10.54;100.00
62694;BME280;48759;52.544;13.418;2023-11-19T10:21:13;99965.09;;;10.76;100.00
62694;BME280;48759;52.544;13.418;2023-11-19T10:23:49;99961.69;;;10.74;100.00
62694;BME280;48759;52.544;13.418;2023-11-19T10:26:17;99956.00;;;10.48;100.00
62694;BME280;48759;52.544;13.418;2023-11-19T10:28:45;99951.25;;;10.84;100.00
62694;BME280;48759;52.544;13.418;2023-11-19T10:31:14;99953.09;;;10.77;100.00
62694;BME280;48759;52.544;13.418;2023-11-19T10:33:41;99939.50;;;10.90;100.00
62694;BME280;48759;52.544;13.418;2023-11-19T10:36:08;99937.13;;;11.22;100.00
62694;BME280;48759;52.544;13.418;2023-11-19T10:38:35;99933.72;;;11.13;100.00
62694;BME280;48759;52.544;13.418;2023-11-19T10:41:01;99932.69;;;11.21;100.00
62694;BME280;48759;52.544;13.418;2023-11-19T10:43:30;99921.22;;;11.52;100.00
62694;BME280;48759;52.544;13.418;2023-11-19T10:46:09;99930.66;;;11.36;100.00
62694;BME280;48759;52.544;13.418;2023-11-19T10:48:38;99922.91;;;11.46;100.00
62694;BME280;48759;52.544;13.418;2023-11-19T10:51:06;99925.00;;;11.44;100.00
62694;BME280;48759;52.544;13.418;2023-11-19T10:53:34;99924.53;;;11.34;100.00
62694;BME280;48759;52.544;13.418;2023-11-19T10:56:04;99927.75;;;11.51;100.00
62694;BME280;48759;52.544;13.418;2023-11-19T10:58:35;99934.06;;;11.51;100.00
62694;BME280;48759;52.544;13.418;2023-11-19T11:01:07;99929.69;;;11.63;100.00
62694;BME280;48759;52.544;13.418;2023-11-19T11:03:39;99940.22;;;11.66;100.00
62694;BME280;48759;52.544;13.418;2023-11-19T11:06:07;99918.34;;;11.80;100.00
62694;BME280;48759;52.544;13.418;2023-11-19T11:08:36;99923.38;;;11.76;100.00
62694;BME280;48759;52.544;13.418;2023-11-19T11:11:04;99925.53;;;11.81;100.00
62694;BME280;48759;52.544;13.418;2023-11-19T11:13:32;99920.84;;;11.75;100.00
62694;BME280;48759;52.544;13.418;2023-11-19T11:16:00;99916.66;;;12.05;100.00
62694;BME280;48759;52.544;13.418;2023-11-19T11:18:26;99908.50;;;12.31;100.00
62694;BME280;48759;52.544;13.418;2023-11-19T11:20:58;99907.47;;;12.19;100.00
62694;BME280;48759;52.544;13.418;2023-11-19T11:26:36;99927.25;;;12.21;100.00
62694;BME280;48759;52.544;13.418;2023-11-19T11:29:13;99917.97;;;12.29;100.00
62694;BME280;48759;52.544;13.418;2023-11-19T11:31:54;99925.16;;;12.23;100.00
62694;BME280;48759;52.544;13.418;2023-11-19T11:34:35;99908.72;;;12.23;100.00
62694;BME280;48759;52.544;13.418;2023-11-19T11:37:13;99932.53;;;12.56;100.00
62694;BME280;48759;52.544;13.418;2023-11-19T11:39:42;99923.88;;;12.45;100.00
62694;BME280;48759;52.544;13.418;2023-11-19T11:42:30;99916.47;;;12.53;100.00
62694;BME280;48759;52.544;13.418;2023-11-19T11:45:01;99903.97;;;12.76;100.00
62694;BME280;48759;52.544;13.418;2023-11-19T11:50:50;99917.09;;;13.32;100.00
62694;BME280;48759;52.544;13.418;2023-11-19T11:53:20;99912.34;;;13.01;100.00
62694;BME280;48759;52.544;13.418;2023-11-19T11:55:58;99920.81;;;13.06;100.00
62694;BME280;48759;52.544;13.418;2023-11-19T11:58:34;99909.59;;;13.14;100.00
62694;BME280;48759;52.544;13.418;2023-11-19T12:01:03;99904.81;;;12.90;100.00
62694;BME280;48759;52.544;13.418;2023-11-19T12:03:33;99919.19;;;12.79;100.00
62694;BME280;48759;52.544;13.418;2023-11-19T12:06:03;99906.91;;;12.88;100.00
62694;BME280;48759;52.544;13.418;2023-11-19T12:08:31;99915.81;;;12.77;100.00
62694;BME280;48759;52.544;13.418;2023-11-19T12:11:01;99931.47;;;12.57;100.00
62694;BME280;48759;52.544;13.418;2023-11-19T12:13:53;99921.94;;;12.72;100.00
62694;BME280;48759;52.544;13.418;2023-11-19T12:16:21;99918.41;;;12.59;100.00
62694;BME280;48759;52.544;13.418;2023-11-19T12:18:48;99912.88;;;12.72;100.00
62694;BME280;48759;52.544;13.418;2023-11-19T12:21:28;99915.19;;;12.62;100.00
62694;BME280;48759;52.544;13.418;2023-11-19T12:23:58;99925.97;;;12.57;100.00
62694;BME280;48759;52.544;13.418;2023-11-19T12:26:33;99916.69;;;12.58;100.00
62694;BME280;48759;52.544;13.418;2023-11-19T12:29:00;99903.63;;;12.60;100.00
62694;BME280;48759;52.544;13.418;2023-11-19T12:31:29;99920.91;;;12.60;100.00
62694;BME280;48759;52.544;13.418;2023-11-19T12:33:55;99908.88;;;12.61;100.00
62694;BME280;48759;52.544;13.418;2023-11-19T12:36:26;99906.13;;;12.61;100.00
62694;BME280;48759;52.544;13.418;2023-11-19T12:38:53;99909.91;;;12.60;100.00
62694;BME280;48759;52.544;13.418;2023-11-19T12:41:21;99911.00;;;12.46;100.00
62694;BME280;48759;52.544;13.418;2023-11-19T12:43:48;99905.53;;;12.33;100.00